createdAt,value
2023-04-10T00:03:13.831Z,101173.94
2023-04-10T00:08:15.693Z,101179.91
2023-04-10T00:13:18.717Z,101186.41
2023-04-10T00:18:20.363Z,101179.16
2023-04-10T00:23:22.006Z,101181.91
2023-04-10T00:28:25.020Z,101181.91
2023-04-10T00:33:26.591Z,101176.66
2023-04-10T00:38:28.208Z,101187.28
2023-04-10T00:43:31.454Z,101161.03
2023-04-10T00:48:33.244Z,101155.34
2023-04-10T00:53:34.981Z,101161.75
2023-04-10T00:58:37.991Z,101141.81
2023-04-10T01:03:42.312Z,101126.66
2023-04-10T01:08:55.130Z,101123.78
2023-04-10T01:14:07.373Z,101126.06
2023-04-10T01:19:21.659Z,101122.63
2023-04-10T01:24:41.497Z,101123.63
2023-04-10T01:29:47.910Z,101115.47
2023-04-10T01:34:52.321Z,101114.28
2023-04-10T01:40:00.151Z,101120.69
2023-04-10T01:45:06.350Z,101130.09
2023-04-10T01:50:09.700Z,101126.22
2023-04-10T01:55:11.882Z,101120.63
2023-04-10T02:00:15.686Z,101116.41
2023-04-10T02:05:17.578Z,101119.94
2023-04-10T02:10:24.899Z,101111.47
2023-04-10T02:15:31.612Z,101096.69
2023-04-10T02:20:34.315Z,101092.50
2023-04-10T02:25:35.975Z,101094.84
2023-04-10T02:30:38.978Z,101083.41
2023-04-10T02:35:40.640Z,101065.81
2023-04-10T02:40:42.289Z,101064.31
2023-04-10T02:45:45.303Z,101063.44
2023-04-10T02:50:46.994Z,101050.44
2023-04-10T02:55:48.643Z,101032.38
2023-04-10T03:00:51.854Z,101022.84
2023-04-10T03:05:53.839Z,101019.47
2023-04-10T03:10:55.495Z,101016.03
2023-04-10T03:15:58.556Z,101015.69
2023-04-10T03:21:00.314Z,101018.53
2023-04-10T03:26:01.943Z,101030.13
2023-04-10T03:31:05.734Z,101032.31
2023-04-10T03:36:08.679Z,101027.22
2023-04-10T03:41:10.386Z,101017.88
2023-04-10T03:46:13.394Z,101027.28
2023-04-10T03:51:15.092Z,101034.69
2023-04-10T03:56:16.813Z,101027.53
2023-04-10T04:01:20.119Z,101039.84
2023-04-10T04:06:21.770Z,101038.75
2023-04-10T04:11:23.508Z,101027.91
2023-04-10T04:16:26.661Z,101018.72
2023-04-10T04:21:28.318Z,101028.94
2023-04-10T04:26:30.433Z,101021.44
2023-04-10T04:31:33.447Z,101013.09
2023-04-10T04:36:35.099Z,101023.84
2023-04-10T04:41:36.710Z,101023.91
2023-04-10T04:46:40.739Z,101011.97
2023-04-10T04:51:43.036Z,101015.72
2023-04-10T04:56:44.652Z,101015.72
2023-04-10T05:01:47.717Z,101016.69
2023-04-10T05:06:49.390Z,101018.28
2023-04-10T05:11:50.988Z,101012.84
2023-04-10T05:16:53.922Z,101007.44
2023-04-10T05:21:55.548Z,101011.13
2023-04-10T05:26:57.217Z,101016.31
2023-04-10T05:32:00.399Z,101015.22
2023-04-10T05:37:02.046Z,101007.16
2023-04-10T05:42:03.909Z,101006.66
2023-04-10T05:47:06.963Z,101016.34
2023-04-10T05:52:08.605Z,101025.03
2023-04-10T05:57:10.392Z,101027.50
2023-04-10T06:02:13.677Z,101028.81
2023-04-10T06:07:15.384Z,101019.75
2023-04-10T06:12:16.966Z,101013.78
2023-04-10T06:17:20.056Z,101018.41
2023-04-10T06:22:21.678Z,101010.91
2023-04-10T06:27:23.331Z,101010.75
2023-04-10T06:32:26.318Z,101015.56
2023-04-10T06:37:28.560Z,101006.41
2023-04-10T06:42:30.275Z,100995.75
2023-04-10T06:47:33.338Z,101001.63
2023-04-10T06:52:35.008Z,100988.09
2023-04-10T06:57:36.646Z,100994.34
2023-04-10T07:02:39.723Z,100991.19
2023-04-10T07:07:41.627Z,100980.84
2023-04-10T07:12:43.406Z,100986.56
2023-04-10T07:17:47.741Z,100985.91
2023-04-10T07:22:49.424Z,100982.47
2023-04-10T07:27:51.267Z,100982.47
2023-04-10T07:32:54.325Z,100974.91
2023-04-10T07:37:56.137Z,100967.66
2023-04-10T07:42:57.764Z,100978.13
2023-04-10T07:48:00.875Z,100981.44
2023-04-10T07:53:02.555Z,100983.72
2023-04-10T07:58:04.293Z,100970.84
2023-04-10T08:03:07.903Z,100965.06
2023-04-10T08:08:09.773Z,100970.69
2023-04-10T08:13:11.438Z,100957.25
2023-04-10T08:18:14.760Z,100933.16
2023-04-10T08:23:20.435Z,100939.81
2023-04-10T08:28:22.725Z,100949.69
2023-04-10T08:33:25.801Z,100929.00
2023-04-10T08:38:27.395Z,100912.59
2023-04-10T08:43:29.042Z,100910.69
2023-04-10T08:48:39.162Z,100893.31
2023-04-10T08:53:44.067Z,100914.44
2023-04-10T08:58:46.069Z,100910.19
2023-04-10T09:03:49.217Z,100897.63
2023-04-10T09:08:50.890Z,100884.53
2023-04-10T09:13:52.488Z,100893.19
2023-04-10T09:18:55.510Z,100878.88
2023-04-10T09:24:00.968Z,100883.25
2023-04-10T09:29:04.011Z,100871.75
2023-04-10T09:34:12.561Z,100857.88
2023-04-10T09:39:14.295Z,100841.91
2023-04-10T09:44:18.324Z,100842.69
2023-04-10T09:49:39.677Z,100840.69
2023-04-10T09:54:41.362Z,100838.50
2023-04-10T09:59:49.307Z,100845.84
2023-04-10T10:04:53.541Z,100810.06
2023-04-10T10:09:55.460Z,100801.00
2023-04-10T10:15:03.172Z,100792.34
2023-04-10T10:20:10.031Z,100796.59
2023-04-10T10:25:13.131Z,100793.91
2023-04-10T10:30:28.669Z,100794.91
2023-04-10T10:35:40.584Z,100770.53
2023-04-10T10:40:49.290Z,100762.84
2023-04-10T10:45:54.638Z,100756.78
2023-04-10T10:50:58.054Z,100745.44
2023-04-10T10:56:00.067Z,100744.78
2023-04-10T11:01:09.294Z,100741.88
2023-04-10T11:06:16.080Z,100744.78
2023-04-10T11:11:18.987Z,100740.03
2023-04-10T11:16:21.357Z,100701.78
2023-04-10T11:21:24.562Z,100702.41
2023-04-10T11:26:41.436Z,100692.59
2023-04-10T11:31:43.967Z,100682.56
2023-04-10T11:36:47.299Z,100672.97
2023-04-10T11:41:50.373Z,100671.22
2023-04-10T11:46:53.207Z,100655.94
2023-04-10T11:51:58.725Z,100646.78
2023-04-10T11:57:04.193Z,100646.44
2023-04-10T12:02:06.491Z,100629.41
2023-04-10T12:07:10.143Z,100615.44
2023-04-10T12:12:11.742Z,100600.59
2023-04-10T12:17:14.095Z,100600.59
2023-04-10T12:22:17.310Z,100589.44
2023-04-10T12:27:20.375Z,100584.31
2023-04-10T12:32:22.654Z,100578.41
2023-04-10T12:37:46.102Z,100575.75
2023-04-10T12:42:47.734Z,100560.94
2023-04-10T12:47:50.894Z,100554.41
2023-04-10T12:53:04.250Z,100560.94
2023-04-10T12:58:16.247Z,100554.06
2023-04-10T13:03:18.084Z,100537.38
2023-04-10T13:08:21.447Z,100528.88
2023-04-10T13:13:23.063Z,100512.31
2023-04-10T13:18:24.880Z,100512.66
2023-04-10T13:23:27.880Z,100507.94
2023-04-10T13:28:29.601Z,100502.81
2023-04-10T13:33:31.221Z,100495.72
2023-04-10T13:38:34.206Z,100489.03
2023-04-10T13:43:36.159Z,100486.88
2023-04-10T13:48:40.617Z,100473.53
2023-04-10T13:53:43.971Z,100472.47
2023-04-10T13:58:45.894Z,100455.09
2023-04-10T14:03:47.735Z,100431.75
2023-04-10T14:08:50.931Z,100423.75
2023-04-10T14:13:52.604Z,100409.31
2023-04-10T14:18:57.195Z,100392.13
2023-04-10T14:24:00.265Z,100379.00
2023-04-10T14:29:01.921Z,100375.53
2023-04-10T14:34:03.520Z,100361.13
2023-04-10T14:39:06.472Z,100357.03
2023-04-10T14:44:08.043Z,100355.44
2023-04-10T14:49:11.926Z,100347.94
2023-04-10T14:54:15.359Z,100334.25
2023-04-10T14:59:17.285Z,100331.88
2023-04-10T15:04:18.945Z,100329.44
2023-04-10T15:09:22.068Z,100321.63
2023-04-10T15:14:23.922Z,100307.53
2023-04-10T15:19:28.061Z,100291.53
2023-04-10T15:24:37.003Z,100277.66
2023-04-10T15:29:45.097Z,100274.53
2023-04-10T15:34:46.893Z,100263.47
2023-04-10T15:39:52.961Z,100256.66
2023-04-10T15:44:54.670Z,100268.81
2023-04-10T15:49:57.005Z,100281.44
2023-04-10T15:55:00.337Z,100298.63
2023-04-10T16:00:02.369Z,100288.41
2023-04-10T16:05:04.462Z,100283.50
2023-04-10T16:10:11.799Z,100277.72
2023-04-10T16:15:13.749Z,100279.13
2023-04-10T16:20:15.587Z,100263.09
2023-04-10T16:25:21.039Z,100260.47
2023-04-10T16:30:23.706Z,100250.78
2023-04-10T16:35:25.563Z,100246.59
2023-04-10T16:40:28.632Z,100243.22
2023-04-10T16:45:30.246Z,100222.94
2023-04-10T16:50:34.395Z,100214.59
2023-04-10T16:55:37.555Z,100208.28
2023-04-10T17:00:39.286Z,100218.72
2023-04-10T17:05:40.960Z,100196.56
2023-04-10T17:10:44.004Z,100199.06
2023-04-10T17:15:45.731Z,100187.53
2023-04-10T17:20:48.400Z,100169.44
2023-04-10T17:25:51.581Z,100168.28
2023-04-10T17:30:53.282Z,100168.09
2023-04-10T17:35:57.936Z,100168.53
2023-04-10T17:41:01.102Z,100153.63
2023-04-10T17:46:04.223Z,100151.78
2023-04-10T17:51:06.539Z,100170.75
2023-04-10T17:56:17.439Z,100167.31
2023-04-10T18:01:23.215Z,100132.88
2023-04-10T18:06:25.248Z,100139.91
2023-04-10T18:11:28.314Z,100141.13
2023-04-10T18:16:29.984Z,100133.16
2023-04-10T18:21:32.649Z,100142.97
2023-04-10T18:26:35.672Z,100153.53
2023-04-10T18:31:37.359Z,100162.34
2023-04-10T18:36:39.161Z,100180.75
2023-04-10T18:41:42.293Z,100170.38
2023-04-10T18:46:46.291Z,100157.88
2023-04-10T18:51:50.411Z,100162.03
2023-04-10T18:56:53.559Z,100145.47
2023-04-10T19:01:55.261Z,100157.25
2023-04-10T19:06:56.908Z,100123.66
2023-04-10T19:11:59.942Z,100115.78
2023-04-10T19:17:01.607Z,100097.25
2023-04-10T19:22:03.298Z,100086.41
2023-04-10T19:27:06.575Z,100097.66
2023-04-10T19:32:08.331Z,100074.59
2023-04-10T19:37:09.974Z,100085.38
2023-04-10T19:42:13.061Z,100069.63
2023-04-10T19:47:14.706Z,100049.88
2023-04-10T19:52:16.265Z,100046.22
2023-04-10T19:57:19.321Z,100089.91
2023-04-10T20:02:21.012Z,100083.25
2023-04-10T20:07:22.850Z,100069.47
2023-04-10T20:12:25.892Z,100055.75
2023-04-10T20:17:27.861Z,100031.19
2023-04-10T20:22:29.570Z,100027.19
2023-04-10T20:27:32.722Z,100028.69
2023-04-10T20:32:34.335Z,100023.22
2023-04-10T20:37:36.125Z,100023.69
2023-04-10T20:42:39.096Z,100028.69
2023-04-10T20:47:40.859Z,100018.75
2023-04-10T20:52:42.521Z,99984.06
2023-04-10T20:57:45.515Z,99969.13
2023-04-10T21:02:47.156Z,99993.69
2023-04-10T21:07:49.038Z,99997.75
2023-04-10T21:12:52.001Z,99989.88
2023-04-10T21:17:53.829Z,99987.38
2023-04-10T21:22:55.464Z,100010.03
2023-04-10T21:27:58.460Z,100009.06
2023-04-10T21:33:00.200Z,100012.34
2023-04-10T21:38:02.447Z,100012.13
2023-04-10T21:43:06.166Z,100023.72
2023-04-10T21:48:07.911Z,100032.88
2023-04-10T21:53:09.569Z,100028.03
2023-04-10T21:58:12.514Z,100021.06
2023-04-10T22:03:14.934Z,100029.53
2023-04-10T22:08:16.706Z,100009.25
2023-04-10T22:13:29.570Z,100005.88
2023-04-10T22:18:32.250Z,100011.75
2023-04-10T22:23:33.896Z,100008.34
2023-04-10T22:28:36.893Z,100006.72
2023-04-10T22:33:38.509Z,100019.72
2023-04-10T22:38:40.113Z,100057.25
2023-04-10T22:43:43.097Z,100076.91
2023-04-10T22:48:46.377Z,100077.97
2023-04-10T22:53:48.629Z,100079.44
2023-04-10T22:58:51.749Z,100078.91
2023-04-10T23:03:53.418Z,100086.31
2023-04-10T23:08:55.663Z,100092.34
2023-04-10T23:13:59.043Z,100086.75
2023-04-10T23:19:00.685Z,100067.31
2023-04-10T23:24:02.374Z,100055.06
2023-04-10T23:29:05.391Z,100061.06
2023-04-10T23:34:07.050Z,100064.16
2023-04-10T23:39:08.862Z,100057.75
2023-04-10T23:44:11.858Z,100051.50
2023-04-10T23:49:13.563Z,100042.19
2023-04-10T23:54:15.214Z,100033.31
2023-04-10T23:59:18.280Z,100033.72
